Time;durP1;ratioP1;P1;durP2;ratioP2;P2;SDS_P1;SDS_P2;PMS_P1;PMS_P2;Temp;Humidity;BMP_temperature;BMP_pressure;BME280_temperature;BME280_humidity;BME280_pressure;Samples;Min_cycle;Max_cycle;Signal;HPM_P1;HPM_P2
2022/06/20 00:00:17;;;;;;;4.03;0.98;;;13.40;99.90;;;;;;4918378;29;20042;-71
2022/06/20 00:02:48;;;;;;;2.78;0.85;;;13.40;99.90;;;;;;4919285;29;20040;-71
2022/06/20 00:05:17;;;;;;;5.85;1.10;;;13.40;99.90;;;;;;4926068;29;20122;-71
2022/06/20 00:07:42;;;;;;;5.15;1.23;;;13.40;99.90;;;;;;4925394;29;20044;-71
2022/06/20 00:10:11;;;;;;;4.68;0.98;;;13.50;99.90;;;;;;4920481;29;20103;-72
2022/06/20 00:12:37;;;;;;;5.82;0.95;;;13.50;99.90;;;;;;4907439;29;20103;-71
2022/06/20 00:15:04;;;;;;;4.90;1.17;;;13.50;99.90;;;;;;4913793;29;20058;-71
2022/06/20 00:17:29;;;;;;;3.17;1.00;;;13.60;99.90;;;;;;4925429;29;20027;-72
2022/06/20 00:19:55;;;;;;;5.80;1.40;;;13.60;99.90;;;;;;4923573;29;20050;-71
2022/06/20 00:22:21;;;;;;;3.55;1.20;;;13.60;99.90;;;;;;4926534;29;20028;-71
2022/06/20 00:24:47;;;;;;;4.40;1.58;;;13.60;99.90;;;;;;4925265;29;20395;-71
2022/06/20 00:27:12;;;;;;;2.53;0.88;;;13.50;99.90;;;;;;4918729;29;20036;-72
2022/06/20 00:29:41;;;;;;;4.45;1.15;;;13.40;99.90;;;;;;4907584;29;20495;-72
2022/06/20 00:32:08;;;;;;;5.50;1.30;;;13.50;99.90;;;;;;4913254;29;20223;-71
2022/06/20 00:34:34;;;;;;;9.07;2.35;;;13.50;99.90;;;;;;4917009;29;20044;-71
2022/06/20 00:37:00;;;;;;;5.60;1.40;;;13.40;99.90;;;;;;4913343;29;20430;-72
2022/06/20 00:39:27;;;;;;;5.43;1.55;;;13.40;99.90;;;;;;4922660;29;20050;-71
2022/06/20 00:41:52;;;;;;;4.72;1.17;;;13.40;99.90;;;;;;4924228;29;20036;-71
2022/06/20 00:44:42;;;;;;;3.47;1.48;;;13.30;99.90;;;;;;4921182;29;20098;-72
2022/06/20 00:47:16;;;;;;;6.15;1.80;;;13.20;99.90;;;;;;4926130;29;20427;-72
2022/06/20 00:50:04;;;;;;;8.07;1.80;;;13.10;99.90;;;;;;4918173;29;20095;-71
2022/06/20 00:52:39;;;;;;;4.65;1.30;;;13.00;99.90;;;;;;4921554;29;20043;-72
2022/06/20 00:55:17;;;;;;;9.48;1.80;;;12.90;99.90;;;;;;4924674;29;20130;-71
2022/06/20 00:58:04;;;;;;;5.28;1.40;;;12.80;99.90;;;;;;4925006;29;20067;-71
2022/06/20 01:00:35;;;;;;;3.53;1.40;;;12.70;99.90;;;;;;4924393;29;20050;-71
2022/06/20 01:03:11;;;;;;;6.10;1.58;;;12.60;99.90;;;;;;4923670;29;20167;-72
2022/06/20 01:06:02;;;;;;;7.10;1.60;;;12.50;99.90;;;;;;4923585;29;20066;-71
2022/06/20 01:08:38;;;;;;;2.45;1.30;;;12.50;99.90;;;;;;4906395;29;20106;-71
2022/06/20 01:11:18;;;;;;;3.90;1.40;;;12.50;99.90;;;;;;4920302;29;20047;-72
2022/06/20 01:13:45;;;;;;;5.20;1.50;;;12.50;99.90;;;;;;4915565;29;20208;-71
2022/06/20 01:16:23;;;;;;;7.18;1.65;;;12.50;99.90;;;;;;4924259;29;20087;-71
2022/06/20 01:18:50;;;;;;;4.22;1.48;;;12.40;99.90;;;;;;4913774;29;20106;-71
2022/06/20 01:21:20;;;;;;;6.80;2.33;;;12.40;99.90;;;;;;4906046;29;20039;-71
2022/06/20 01:24:19;;;;;;;9.32;2.25;;;12.30;99.90;;;;;;4914855;29;20028;-71
2022/06/20 01:27:10;;;;;;;7.43;1.67;;;12.20;99.90;;;;;;4922827;29;20119;-72
2022/06/20 01:29:36;;;;;;;6.82;1.50;;;12.20;99.90;;;;;;4923489;29;20035;-72
2022/06/20 01:32:04;;;;;;;4.95;1.40;;;12.20;99.90;;;;;;4920543;29;20043;-72
2022/06/20 01:34:31;;;;;;;6.72;2.22;;;12.20;99.90;;;;;;4907078;29;20512;-72
2022/06/20 01:37:25;;;;;;;6.10;1.60;;;12.10;99.90;;;;;;4916583;29;20040;-72
2022/06/20 01:39:57;;;;;;;7.05;2.05;;;12.00;99.90;;;;;;4917791;29;20082;-72
2022/06/20 01:42:26;;;;;;;6.30;2.13;;;11.90;99.90;;;;;;4919764;29;20142;-73
2022/06/20 01:45:03;;;;;;;7.88;1.88;;;11.90;99.90;;;;;;4923929;29;20024;-72
2022/06/20 01:47:28;;;;;;;5.60;1.40;;;11.80;99.90;;;;;;4926083;29;20043;-72
2022/06/20 01:50:02;;;;;;;5.53;1.85;;;11.80;99.90;;;;;;4925345;29;20086;-72
2022/06/20 01:52:32;;;;;;;7.10;1.77;;;11.80;99.90;;;;;;4920289;29;20067;-72
2022/06/20 01:55:11;;;;;;;7.40;1.77;;;11.80;99.90;;;;;;4922567;29;20498;-72
2022/06/20 01:57:40;;;;;;;8.98;1.85;;;11.80;99.90;;;;;;4915012;29;20103;-72
2022/06/20 02:00:22;;;;;;;5.53;2.00;;;11.70;99.90;;;;;;4914081;29;20078;-72
2022/06/20 02:02:52;;;;;;;3.75;1.60;;;11.70;99.90;;;;;;4913745;29;20032;-72
2022/06/20 02:05:25;;;;;;;7.45;2.20;;;11.70;99.90;;;;;;4919530;29;20106;-72
2022/06/20 02:07:51;;;;;;;9.20;1.83;;;11.90;99.90;;;;;;4924210;29;20036;-72
2022/06/20 02:10:26;;;;;;;8.02;1.85;;;11.90;99.90;;;;;;4916396;29;20032;-72
2022/06/20 02:12:53;;;;;;;6.10;1.90;;;12.00;99.90;;;;;;4914658;29;20507;-72
2022/06/20 02:15:20;;;;;;;7.78;1.83;;;12.10;99.90;;;;;;4917903;29;20404;-72
2022/06/20 02:17:50;;;;;;;8.05;1.90;;;12.30;99.90;;;;;;4910585;29;20111;-72
2022/06/20 02:20:21;;;;;;;5.85;1.67;;;12.40;99.90;;;;;;4928185;29;20067;-72
2022/06/20 02:22:49;;;;;;;6.78;2.33;;;12.50;99.90;;;;;;4927147;29;20031;-72
2022/06/20 02:25:19;;;;;;;5.03;1.58;;;12.50;99.90;;;;;;4925665;29;20031;-72
2022/06/20 02:27:53;;;;;;;7.15;1.92;;;12.60;99.90;;;;;;4926131;29;20066;-72
2022/06/20 02:30:19;;;;;;;7.43;1.75;;;12.70;99.90;;;;;;4925917;29;20483;-72
2022/06/20 02:32:51;;;;;;;8.48;1.80;;;12.60;99.90;;;;;;4926976;29;20036;-72
2022/06/20 02:35:20;;;;;;;7.43;1.80;;;12.70;99.90;;;;;;4916693;29;20047;-72
2022/06/20 02:37:47;;;;;;;6.55;2.05;;;12.70;99.90;;;;;;4927213;29;20031;-72
2022/06/20 02:40:16;;;;;;;5.72;1.90;;;12.70;99.90;;;;;;4921980;29;20392;-72
2022/06/20 02:43:10;;;;;;;7.75;1.75;;;12.60;99.90;;;;;;4921078;29;20489;-72
2022/06/20 02:45:39;;;;;;;6.95;2.08;;;12.70;99.90;;;;;;4922331;29;20523;-72
2022/06/20 02:48:08;;;;;;;8.57;2.08;;;12.60;99.90;;;;;;4925255;29;20028;-72
2022/06/20 02:50:42;;;;;;;5.70;2.05;;;12.60;99.90;;;;;;4916619;29;20036;-72
2022/06/20 02:53:42;;;;;;;6.63;1.63;;;12.50;99.90;;;;;;4915276;29;20034;-72
2022/06/20 02:56:11;;;;;;;3.17;1.48;;;12.40;99.90;;;;;;4920190;29;20491;-72
2022/06/20 02:58:48;;;;;;;7.88;1.63;;;12.30;99.90;;;;;;4927844;29;20066;-72
2022/06/20 03:01:37;;;;;;;5.22;1.92;;;12.10;99.90;;;;;;4926119;29;20035;-72
2022/06/20 03:04:04;;;;;;;6.95;1.90;;;12.10;99.90;;;;;;4923767;29;20742;-72
2022/06/20 03:06:43;;;;;;;4.93;1.77;;;11.90;99.90;;;;;;4909448;29;20032;-71
2022/06/20 03:09:12;;;;;;;5.45;1.58;;;11.80;99.90;;;;;;4920156;29;20036;-72
2022/06/20 03:11:39;;;;;;;9.80;2.20;;;11.80;99.90;;;;;;4921550;29;20042;-72
2022/06/20 03:14:10;;;;;;;7.22;2.33;;;11.70;99.90;;;;;;4918742;29;20028;-72
2022/06/20 03:16:39;;;;;;;5.72;1.48;;;11.60;99.90;;;;;;4926389;29;20058;-72
2022/06/20 03:19:06;;;;;;;5.75;1.90;;;11.50;99.90;;;;;;4925759;29;20403;-72
2022/06/20 03:21:36;;;;;;;5.43;1.55;;;11.40;99.90;;;;;;4919180;29;20032;-72
2022/06/20 03:24:03;;;;;;;4.50;1.50;;;11.40;99.90;;;;;;4908731;29;20032;-72
2022/06/20 03:26:30;;;;;;;4.03;1.85;;;11.30;99.90;;;;;;4925297;29;20275;-72
2022/06/20 03:28:57;;;;;;;5.43;1.85;;;11.20;99.90;;;;;;4926004;29;20486;-72
2022/06/20 03:31:23;;;;;;;6.07;1.60;;;11.10;99.90;;;;;;4924960;29;20036;-72
2022/06/20 03:33:48;;;;;;;7.45;1.80;;;11.00;99.90;;;;;;4921077;29;20495;-72
2022/06/20 03:36:25;;;;;;;6.05;1.92;;;11.00;99.90;;;;;;4926385;29;20039;-72
2022/06/20 03:38:52;;;;;;;8.57;1.85;;;11.00;99.90;;;;;;4927509;28;20040;-72
2022/06/20 03:41:23;;;;;;;5.05;2.15;;;11.00;99.90;;;;;;4921748;29;20488;-72
2022/06/20 03:44:03;;;;;;;5.90;1.85;;;11.00;99.90;;;;;;4921867;29;20056;-72
2022/06/20 03:46:37;;;;;;;4.70;1.60;;;10.90;99.90;;;;;;4925518;29;20040;-72
2022/06/20 03:49:10;;;;;;;7.38;1.90;;;10.90;99.90;;;;;;4935440;29;20412;-72
2022/06/20 03:51:47;;;;;;;5.13;1.50;;;10.90;99.90;;;;;;4926479;29;20032;-72
2022/06/20 03:54:13;;;;;;;6.93;1.80;;;10.90;99.90;;;;;;4915495;29;20505;-72
2022/06/20 03:56:50;;;;;;;8.75;1.65;;;10.90;99.90;;;;;;4925848;29;20040;-72
2022/06/20 03:59:26;;;;;;;6.40;1.60;;;11.00;99.90;;;;;;4911284;29;20574;-72
2022/06/20 04:02:06;;;;;;;6.63;1.52;;;11.00;99.90;;;;;;4922037;29;20047;-72
2022/06/20 04:04:54;;;;;;;8.68;1.95;;;11.10;99.90;;;;;;4926204;29;20416;-72
2022/06/20 04:07:39;;;;;;;6.50;2.10;;;11.30;99.90;;;;;;4927476;29;20044;-72
2022/06/20 04:13:18;;;;;;;7.78;1.42;;;11.40;99.90;;;;;;4921237;29;20091;-72
2022/06/20 04:15:48;;;;;;;4.50;1.42;;;11.40;99.90;;;;;;4926231;29;20059;-72
2022/06/20 04:18:28;;;;;;;7.47;1.50;;;11.40;99.90;;;;;;4915768;29;20135;-72
2022/06/20 04:21:06;;;;;;;10.23;2.03;;;11.50;99.90;;;;;;4920710;29;20035;-72
2022/06/20 04:23:52;;;;;;;6.20;1.70;;;11.60;99.90;;;;;;4917001;29;20094;-72
2022/06/20 04:26:17;;;;;;;4.75;1.55;;;11.70;99.90;;;;;;4918642;29;20459;-72
2022/06/20 04:28:52;;;;;;;10.75;2.00;;;11.80;99.90;;;;;;4924297;29;20055;-72
2022/06/20 04:31:45;;;;;;;13.05;2.38;;;11.80;99.90;;;;;;4926385;29;20039;-72
2022/06/20 04:34:11;;;;;;;8.55;1.80;;;11.90;99.90;;;;;;4927066;29;20039;-72
2022/06/20 04:36:42;;;;;;;10.80;1.67;;;12.00;99.90;;;;;;4926664;29;20039;-72
2022/06/20 04:39:39;;;;;;;4.03;1.20;;;12.10;99.90;;;;;;4925069;29;20035;-72
2022/06/20 04:42:18;;;;;;;7.18;2.10;;;12.30;99.90;;;;;;4901117;29;20044;-72
2022/06/20 04:45:10;;;;;;;7.07;1.55;;;12.40;99.90;;;;;;4925583;29;20518;-72
2022/06/20 04:47:47;;;;;;;7.38;1.85;;;12.40;99.90;;;;;;4910146;29;20932;-72
2022/06/20 04:50:23;;;;;;;4.82;1.60;;;12.50;99.90;;;;;;4925827;29;20102;-72
2022/06/20 04:52:51;;;;;;;3.95;1.58;;;12.50;99.90;;;;;;4926438;29;20049;-72
2022/06/20 04:55:21;;;;;;;6.35;2.10;;;12.60;99.90;;;;;;4925177;29;20044;-72
2022/06/20 04:57:49;;;;;;;8.85;1.60;;;12.60;99.90;;;;;;4924958;29;20035;-71
2022/06/20 05:00:19;;;;;;;7.97;1.35;;;12.70;99.90;;;;;;4917673;29;20032;-72
2022/06/20 05:02:46;;;;;;;7.00;1.48;;;12.80;99.90;;;;;;4917058;29;20035;-72
2022/06/20 05:05:18;;;;;;;8.13;1.67;;;12.80;99.90;;;;;;4921497;29;20063;-72
2022/06/20 05:07:45;;;;;;;2.67;1.08;;;12.90;99.90;;;;;;4913109;29;20032;-72
2022/06/20 05:10:32;;;;;;;5.13;1.20;;;13.00;99.90;;;;;;4915264;29;20036;-72
2022/06/20 05:13:10;;;;;;;6.28;1.55;;;13.10;99.90;;;;;;4907510;29;20151;-72
2022/06/20 05:15:46;;;;;;;7.32;1.60;;;13.20;99.90;;;;;;4919690;29;20880;-72
2022/06/20 05:18:32;;;;;;;10.70;2.05;;;13.30;99.90;;;;;;4919676;29;20043;-71
2022/06/20 05:21:05;;;;;;;4.20;1.27;;;13.50;99.90;;;;;;4925788;29;20106;-73
2022/06/20 05:23:41;;;;;;;6.80;2.13;;;13.60;99.90;;;;;;4925788;29;20487;-72
2022/06/20 05:26:17;;;;;;;4.18;2.25;;;13.70;99.90;;;;;;4925418;29;20444;-72
2022/06/20 05:28:46;;;;;;;5.05;1.20;;;13.80;99.90;;;;;;4925403;29;20031;-72
2022/06/20 05:31:15;;;;;;;5.60;1.55;;;13.90;99.90;;;;;;4922647;29;20039;-72
2022/06/20 05:33:53;;;;;;;4.72;1.08;;;14.10;99.90;;;;;;4916869;29;20496;-72
2022/06/20 05:36:24;;;;;;;3.78;1.20;;;14.10;99.90;;;;;;4910418;29;20040;-72
2022/06/20 05:39:15;;;;;;;5.70;1.40;;;14.20;99.90;;;;;;4917137;29;20024;-72
2022/06/20 05:41:42;;;;;;;5.72;1.25;;;14.20;99.90;;;;;;4922836;29;20127;-72
2022/06/20 05:44:12;;;;;;;6.95;1.70;;;14.10;99.90;;;;;;4922957;29;20031;-72
2022/06/20 05:46:43;;;;;;;3.38;1.50;;;14.10;99.90;;;;;;4925932;29;20110;-72
2022/06/20 05:49:17;;;;;;;6.72;1.98;;;14.00;99.90;;;;;;4925604;29;20056;-72
2022/06/20 05:51:44;;;;;;;4.63;1.48;;;14.00;99.90;;;;;;4918499;29;20044;-72
2022/06/20 05:54:14;;;;;;;5.22;1.30;;;14.00;99.90;;;;;;4914159;29;20036;-72
2022/06/20 05:56:44;;;;;;;5.03;1.40;;;14.00;99.90;;;;;;4918209;29;20384;-72
2022/06/20 05:59:28;;;;;;;6.53;1.95;;;14.00;99.90;;;;;;4921946;29;20114;-72
2022/06/20 06:02:43;;;;;;;8.75;1.65;;;14.10;99.90;;;;;;4921075;29;20308;-72
2022/06/20 06:05:24;;;;;;;8.15;1.83;;;14.20;99.90;;;;;;4915622;29;20035;-72
2022/06/20 06:07:59;;;;;;;4.07;1.52;;;14.30;99.90;;;;;;4921247;29;20690;-72
2022/06/20 06:10:47;;;;;;;5.57;1.83;;;14.50;99.90;;;;;;4923336;29;20035;-73
2022/06/20 06:13:19;;;;;;;7.07;1.40;;;14.50;99.90;;;;;;4905681;29;20047;-73
2022/06/20 06:19:37;;;;;;;4.60;1.60;;;14.50;99.90;;;;;;4917555;29;20403;-72
2022/06/20 06:22:20;;;;;;;3.25;0.95;;;14.40;99.90;;;;;;4910404;29;20040;-73
2022/06/20 06:24:48;;;;;;;7.80;1.48;;;14.40;99.90;;;;;;4907971;29;20119;-72
2022/06/20 06:27:24;;;;;;;5.35;1.27;;;14.30;99.90;;;;;;4914986;29;20031;-72
2022/06/20 06:29:57;;;;;;;5.20;1.40;;;14.40;99.90;;;;;;4914360;29;20043;-72
2022/06/20 06:32:27;;;;;;;8.25;1.45;;;14.40;99.90;;;;;;4912275;29;20063;-72
2022/06/20 06:34:58;;;;;;;6.05;1.75;;;14.50;99.90;;;;;;4912219;29;20043;-73
2022/06/20 06:37:52;;;;;;;3.88;1.42;;;14.60;99.90;;;;;;4913385;29;20032;-73
2022/06/20 06:40:32;;;;;;;6.68;1.50;;;14.60;99.90;;;;;;4903381;29;20050;-73
2022/06/20 06:42:59;;;;;;;2.70;1.60;;;14.70;99.90;;;;;;4912693;29;20032;-73
2022/06/20 06:45:28;;;;;;;6.63;1.48;;;14.70;99.90;;;;;;4916119;29;20032;-73
2022/06/20 06:48:00;;;;;;;6.55;1.20;;;14.80;99.90;;;;;;4922427;29;20045;-73
2022/06/20 06:50:30;;;;;;;5.38;1.35;;;14.90;99.90;;;;;;4912686;29;20052;-73
2022/06/20 06:53:22;;;;;;;4.57;1.33;;;15.10;99.90;;;;;;4912149;29;20040;-71
2022/06/20 06:55:50;;;;;;;;;;;15.30;99.90;;;;;;4910142;29;20056;-73
2022/06/20 06:58:36;;;;;;;3.42;0.70;;;15.50;99.90;;;;;;4921106;29;20438;-72
2022/06/20 07:01:18;;;;;;;4.50;1.13;;;15.60;99.90;;;;;;4918300;29;20547;-72
2022/06/20 07:04:18;;;;;;;1.95;0.90;;;15.70;99.90;;;;;;4910348;29;20954;-73
2022/06/20 07:07:06;;;;;;;5.15;0.80;;;15.90;99.90;;;;;;4921790;29;20062;-72
2022/06/20 07:09:35;;;;;;;4.82;1.00;;;16.00;99.90;;;;;;4917713;29;20028;-72
2022/06/20 07:12:34;;;;;;;3.70;0.95;;;16.00;99.90;;;;;;4916805;29;20036;-73
2022/06/20 07:15:19;;;;;;;3.90;1.10;;;16.00;99.90;;;;;;4915552;29;20055;-72
2022/06/20 07:17:50;;;;;;;5.43;1.00;;;16.00;99.90;;;;;;4915163;29;20035;-73
2022/06/20 07:20:20;;;;;;;2.53;0.85;;;15.90;99.90;;;;;;4914250;29;20042;-73
2022/06/20 07:22:48;;;;;;;7.30;1.00;;;16.10;99.90;;;;;;4913294;29;20103;-72
2022/06/20 07:25:22;;;;;;;5.78;3.33;;;16.10;99.90;;;;;;4911474;29;20036;-73
2022/06/20 07:28:05;;;;;;;4.25;0.80;;;16.10;99.90;;;;;;4909482;29;20388;-73
2022/06/20 07:30:38;;;;;;;3.85;0.70;;;16.60;99.90;;;;;;4912520;29;20039;-73
2022/06/20 07:33:30;;;;;;;1.55;0.70;;;17.80;98.00;;;;;;4922575;29;20028;-73
2022/06/20 07:35:59;;;;;;;1.27;0.45;;;22.60;71.00;;;;;;4913077;29;20036;-70
2022/06/20 07:38:38;;;;;;;1.50;0.47;;;27.00;50.20;;;;;;4919723;29;20034;-70
2022/06/20 07:41:17;;;;;;;1.88;0.60;;;30.00;39.20;;;;;;4916317;29;20036;-71
2022/06/20 07:44:07;;;;;;;3.35;0.60;;;31.80;36.30;;;;;;4916509;29;20116;-71
2022/06/20 07:46:39;;;;;;;2.63;0.57;;;32.90;32.00;;;;;;4913177;29;20123;-71
2022/06/20 07:49:11;;;;;;;2.75;0.50;;;33.00;32.30;;;;;;4928868;29;20119;-71
2022/06/20 07:51:41;;;;;;;1.98;0.30;;;33.40;29.90;;;;;;4913205;29;20031;-71
2022/06/20 07:54:13;;;;;;;2.72;0.70;;;34.10;29.30;;;;;;4919207;29;20040;-71
2022/06/20 07:57:07;;;;;;;2.60;0.52;;;33.80;30.00;;;;;;4908793;29;20532;-71
2022/06/20 07:59:50;;;;;;;2.50;0.60;;;35.30;29.40;;;;;;4911872;29;20610;-70
2022/06/20 08:02:26;;;;;;;5.00;0.60;;;35.50;27.80;;;;;;4922131;29;20419;-71
2022/06/20 08:04:56;;;;;;;5.60;0.73;;;34.30;29.80;;;;;;4916944;29;20035;-70
2022/06/20 08:07:29;;;;;;;1.25;0.38;;;34.00;29.30;;;;;;4917606;29;20031;-71
2022/06/20 08:10:01;;;;;;;3.35;0.80;;;34.70;29.30;;;;;;4925994;29;20048;-71
2022/06/20 08:12:41;;;;;;;1.65;0.40;;;34.90;28.60;;;;;;4916324;29;20028;-70
2022/06/20 08:15:36;;;;;;;2.75;0.70;;;35.50;30.40;;;;;;4917482;29;20040;-70
2022/06/20 08:18:02;;;;;;;1.50;0.70;;;36.20;29.20;;;;;;4906791;29;20148;-70
2022/06/20 08:20:33;;;;;;;2.30;0.60;;;36.80;27.90;;;;;;4920612;29;20028;-71
2022/06/20 08:23:08;;;;;;;2.37;0.60;;;36.80;28.30;;;;;;4922155;29;20110;-70
2022/06/20 08:25:40;;;;;;;3.70;0.95;;;37.00;29.10;;;;;;4910988;29;20024;-70
2022/06/20 08:28:11;;;;;;;1.42;0.60;;;36.80;27.80;;;;;;4916974;29;20100;-73
2022/06/20 08:30:53;;;;;;;1.13;0.38;;;37.10;28.70;;;;;;4919586;29;20464;-73
2022/06/20 08:33:28;;;;;;;1.55;0.50;;;37.00;28.30;;;;;;4910077;29;20039;-72
2022/06/20 08:36:08;;;;;;;2.22;0.55;;;36.20;27.90;;;;;;4917348;29;20134;-72
2022/06/20 08:38:44;;;;;;;1.63;0.70;;;36.10;28.10;;;;;;4913055;29;20396;-72
2022/06/20 08:41:24;;;;;;;2.22;0.40;;;36.10;28.30;;;;;;4907866;29;20028;-71
2022/06/20 08:44:10;;;;;;;4.03;0.80;;;36.70;28.30;;;;;;4917480;29;20055;-72
2022/06/20 08:46:42;;;;;;;3.65;0.60;;;36.40;28.40;;;;;;4917619;29;20043;-72
2022/06/20 08:49:10;;;;;;;3.75;0.80;;;36.40;27.40;;;;;;4924452;29;20040;-72
2022/06/20 08:52:23;;;;;;;4.93;0.82;;;36.50;27.50;;;;;;4913418;29;20462;-72
2022/06/20 08:55:21;;;;;;;3.00;0.57;;;35.40;29.50;;;;;;4860283;29;20059;-72
2022/06/20 08:58:14;;;;;;;3.15;0.70;;;34.80;29.40;;;;;;4914664;29;20764;-71
2022/06/20 09:01:04;;;;;;;2.50;0.60;;;34.80;28.30;;;;;;4916822;29;20040;-72
2022/06/20 09:04:08;;;;;;;2.40;0.70;;;35.20;28.00;;;;;;4916742;29;20467;-72
2022/06/20 09:06:55;;;;;;;2.80;0.80;;;35.20;29.10;;;;;;4869839;29;20518;-72
2022/06/20 09:09:48;;;;;;;3.63;0.40;;;35.60;28.60;;;;;;4919878;29;20035;-72
2022/06/20 09:12:13;;;;;;;3.55;0.70;;;34.90;29.70;;;;;;4918199;29;20039;-72
2022/06/20 09:14:54;;;;;;;2.42;0.60;;;34.30;29.30;;;;;;4917224;29;20056;-71
2022/06/20 09:17:50;;;;;;;2.15;0.73;;;34.00;30.80;;;;;;4908494;29;20040;-72
2022/06/20 09:20:15;;;;;;;3.67;0.85;;;33.30;30.00;;;;;;4914826;29;20051;-72
2022/06/20 09:23:06;;;;;;;2.97;0.52;;;32.50;28.80;;;;;;4915171;29;20867;-72
2022/06/20 09:25:56;;;;;;;1.35;0.52;;;33.30;30.40;;;;;;4901365;29;20490;-71
2022/06/20 09:28:32;;;;;;;1.33;0.70;;;33.80;30.50;;;;;;4919174;29;20039;-72
2022/06/20 09:31:19;;;;;;;2.35;0.82;;;32.00;30.40;;;;;;4920156;29;20028;-72
2022/06/20 09:34:07;;;;;;;2.55;0.60;;;32.60;29.70;;;;;;4906522;29;20339;-72
2022/06/20 09:36:47;;;;;;;1.75;0.70;;;32.70;29.50;;;;;;4920894;29;20312;-72
2022/06/20 09:39:46;;;;;;;1.77;0.52;;;32.90;28.80;;;;;;4919834;29;20032;-72
2022/06/20 09:42:33;;;;;;;2.53;0.65;;;32.50;32.20;;;;;;4920600;29;20023;-71
2022/06/20 09:45:17;;;;;;;2.97;0.77;;;31.90;31.30;;;;;;4920565;29;20031;-71
2022/06/20 09:47:58;;;;;;;2.13;0.65;;;31.20;34.00;;;;;;4930091;29;20036;-72
2022/06/20 09:50:44;;;;;;;3.00;0.80;;;32.00;32.50;;;;;;4923079;29;20503;-71
2022/06/20 09:53:25;;;;;;;5.57;1.00;;;31.80;30.30;;;;;;4919355;29;20511;-72
2022/06/20 09:55:55;;;;;;;3.28;0.82;;;31.80;31.30;;;;;;4924685;29;20054;-72
2022/06/20 09:58:36;;;;;;;1.92;0.60;;;30.90;31.40;;;;;;4919697;29;20597;-72
2022/06/20 10:01:10;;;;;;;1.30;0.63;;;30.80;31.40;;;;;;4923228;29;20484;-72
2022/06/20 10:03:44;;;;;;;2.85;0.70;;;31.10;34.00;;;;;;4925070;29;20468;-72
2022/06/20 10:06:18;;;;;;;3.17;0.93;;;31.60;30.10;;;;;;4915183;29;20025;-72
2022/06/20 10:08:53;;;;;;;3.00;0.80;;;31.60;33.60;;;;;;4921143;29;20488;-72
2022/06/20 10:11:21;;;;;;;3.20;0.73;;;31.30;34.40;;;;;;4918351;29;20028;-72
2022/06/20 10:14:10;;;;;;;2.88;0.70;;;31.20;32.90;;;;;;4924662;29;20043;-72
2022/06/20 10:17:02;;;;;;;3.78;1.20;;;31.10;35.30;;;;;;4913519;29;20560;-71
2022/06/20 10:19:38;;;;;;;1.85;0.60;;;31.20;32.80;;;;;;4914216;29;20866;-72
2022/06/20 10:22:09;;;;;;;2.97;0.60;;;31.20;31.50;;;;;;4914622;29;20034;-72
2022/06/20 10:24:51;;;;;;;1.50;0.68;;;31.10;35.40;;;;;;4917239;29;20032;-72
2022/06/20 10:27:40;;;;;;;2.65;0.95;;;31.20;33.00;;;;;;4915862;29;20554;-72
2022/06/20 10:30:10;;;;;;;3.05;0.73;;;31.30;31.00;;;;;;4918909;29;20028;-72
2022/06/20 10:32:41;;;;;;;3.38;0.98;;;31.30;35.10;;;;;;4907522;29;20589;-71
2022/06/20 10:35:22;;;;;;;3.35;0.80;;;31.00;31.10;;;;;;4924686;29;20036;-71
2022/06/20 10:37:47;;;;;;;3.67;0.70;;;31.30;35.70;;;;;;4925887;29;20566;-71
2022/06/20 10:40:20;;;;;;;3.88;0.80;;;31.00;35.70;;;;;;4914228;29;20035;-71
2022/06/20 10:42:58;;;;;;;2.53;0.80;;;30.90;32.80;;;;;;4925322;29;20170;-72
2022/06/20 10:45:31;;;;;;;3.50;0.90;;;30.40;32.30;;;;;;4925232;29;20074;-71
2022/06/20 10:48:13;;;;;;;2.97;1.00;;;30.70;31.40;;;;;;4928328;29;20020;-71
2022/06/20 10:50:45;;;;;;;4.88;1.20;;;30.00;32.30;;;;;;4923534;29;20303;-71
2022/06/20 10:53:52;;;;;;;3.13;0.90;;;29.70;34.30;;;;;;4925122;29;20023;-71
2022/06/20 10:56:26;;;;;;;2.15;1.10;;;29.60;34.80;;;;;;4910280;29;20059;-71
2022/06/20 10:59:01;;;;;;;3.28;0.80;;;29.00;36.00;;;;;;4925514;29;20031;-71
2022/06/20 11:01:42;;;;;;;3.15;0.95;;;29.20;38.20;;;;;;4924761;29;20027;-71
2022/06/20 11:04:28;;;;;;;2.67;0.70;;;29.70;40.60;;;;;;4928137;29;20032;-71
2022/06/20 11:06:54;;;;;;;1.75;0.80;;;29.50;35.40;;;;;;4927880;29;20036;-70
2022/06/20 11:09:29;;;;;;;1.38;0.80;;;29.80;40.20;;;;;;4919642;29;20028;-71
2022/06/20 11:12:05;;;;;;;3.20;0.93;;;29.30;35.30;;;;;;4920082;29;20035;-71
2022/06/20 11:14:54;;;;;;;2.67;1.02;;;29.50;38.00;;;;;;4923676;29;20572;-71
2022/06/20 11:17:37;;;;;;;4.85;1.00;;;29.80;37.00;;;;;;4924921;29;20119;-71
2022/06/20 11:20:19;;;;;;;4.20;1.17;;;30.10;42.30;;;;;;4920553;29;20046;-72
2022/06/20 11:22:58;;;;;;;3.83;0.88;;;29.70;35.00;;;;;;4920881;29;20027;-71
2022/06/20 11:26:04;;;;;;;3.70;1.17;;;29.30;43.70;;;;;;4917843;29;20119;-71
2022/06/20 11:29:05;;;;;;;3.50;1.13;;;29.10;33.60;;;;;;4919480;29;20039;-70
2022/06/20 11:32:03;;;;;;;2.55;1.10;;;27.90;37.00;;;;;;4923774;29;20032;-72
2022/06/20 11:34:29;;;;;;;4.38;0.90;;;27.90;42.40;;;;;;4906945;29;20048;-71
2022/06/20 11:37:00;;;;;;;1.92;1.02;;;27.60;42.20;;;;;;4906383;29;20091;-71
2022/06/20 11:39:50;;;;;;;2.80;1.10;;;26.90;37.90;;;;;;4913411;29;20035;-70
2022/06/20 11:42:31;;;;;;;4.20;1.10;;;26.70;54.30;;;;;;4921689;29;20036;-71
2022/06/20 11:45:30;;;;;;;3.50;0.82;;;26.40;44.30;;;;;;4927106;29;20619;-70
2022/06/20 11:48:22;;;;;;;3.72;1.27;;;26.20;46.80;;;;;;4925167;29;20079;-70
2022/06/20 11:51:21;;;;;;;4.25;0.88;;;26.00;52.80;;;;;;4923453;29;20028;-71
2022/06/20 11:53:53;;;;;;;2.35;1.00;;;25.90;49.70;;;;;;4924372;29;20046;-70
2022/06/20 11:56:37;;;;;;;4.38;0.98;;;26.00;44.00;;;;;;4922149;29;20204;-71
2022/06/20 11:59:11;;;;;;;3.60;0.90;;;25.80;43.30;;;;;;4930691;29;20042;-71
2022/06/20 12:01:46;;;;;;;3.38;1.23;;;25.70;45.00;;;;;;4925586;29;20091;-71
2022/06/20 12:04:25;;;;;;;3.25;1.13;;;25.90;48.70;;;;;;4919670;29;20123;-71
2022/06/20 12:07:13;;;;;;;3.28;1.10;;;25.90;43.60;;;;;;4921870;29;20108;-71
2022/06/20 12:09:45;;;;;;;2.63;1.10;;;25.70;51.30;;;;;;4923262;29;20063;-71
2022/06/20 12:12:10;;;;;;;2.80;1.30;;;25.50;47.90;;;;;;4919330;29;20062;-71
2022/06/20 12:14:43;;;;;;;5.25;1.20;;;25.70;45.10;;;;;;4918679;29;20056;-71
2022/06/20 12:17:15;;;;;;;2.63;1.10;;;25.90;55.10;;;;;;4908012;29;20042;-71
2022/06/20 12:25:36;;;;;;;4.60;1.10;;;25.60;50.50;;;;;;4918720;29;20530;-72
2022/06/20 12:28:18;;;;;;;3.60;1.42;;;25.50;54.00;;;;;;4920199;29;20059;-72
2022/06/20 12:30:44;;;;;;;;;;;25.40;55.40;;;;;;4926126;29;20411;-72
2022/06/20 12:33:11;;;;;;;2.00;0.93;;;25.50;47.00;;;;;;4924639;29;19914;-72
2022/06/20 12:35:45;;;;;;;2.53;1.20;;;25.60;45.30;;;;;;4918644;29;20047;-71
2022/06/20 12:38:24;;;;;;;6.05;1.38;;;25.30;54.10;;;;;;4920458;29;20024;-72
2022/06/20 12:40:57;;;;;;;4.93;1.20;;;25.40;44.80;;;;;;4917471;29;20110;-71
2022/06/20 12:43:40;;;;;;;1.85;0.80;;;25.10;45.40;;;;;;4925765;29;20019;-71
2022/06/20 12:46:18;;;;;;;5.22;1.48;;;25.00;45.60;;;;;;4923861;29;20041;-71
2022/06/20 12:49:02;;;;;;;3.05;1.38;;;25.00;53.00;;;;;;4922889;29;20511;-72
2022/06/20 12:51:55;;;;;;;4.60;1.77;;;25.00;46.70;;;;;;4926607;29;20038;-72
2022/06/20 12:54:40;;;;;;;4.03;1.17;;;24.80;54.00;;;;;;4925256;29;20043;-72
2022/06/20 12:57:36;;;;;;;3.08;1.13;;;24.70;50.50;;;;;;4906465;29;20051;-71
2022/06/20 13:00:14;;;;;;;3.78;0.90;;;24.50;44.80;;;;;;4918485;29;20036;-72
2022/06/20 13:02:45;;;;;;;3.70;1.40;;;24.40;48.20;;;;;;4920373;29;20031;-71
2022/06/20 13:05:37;;;;;;;4.85;1.58;;;24.30;51.60;;;;;;4912531;28;20039;-71
2022/06/20 13:08:35;;;;;;;5.20;1.48;;;24.40;50.50;;;;;;4915778;29;20089;-71
2022/06/20 13:11:25;;;;;;;2.25;1.30;;;24.20;58.10;;;;;;4573687;28;10000096;-71
2022/06/20 13:14:12;;;;;;;7.43;1.75;;;24.50;51.90;;;;;;4917359;29;20108;-74
2022/06/20 13:16:56;;;;;;;4.45;1.30;;;24.60;57.20;;;;;;4920041;29;20043;-77
2022/06/20 13:19:44;;;;;;;3.97;1.33;;;24.50;47.40;;;;;;4921132;29;20044;-75
2022/06/20 13:22:47;;;;;;;3.92;2.10;;;24.60;63.30;;;;;;4912424;29;20027;-73
2022/06/20 13:25:35;;;;;;;5.70;1.40;;;25.00;52.30;;;;;;4915971;29;20023;-75
2022/06/20 13:28:23;;;;;;;5.65;1.45;;;24.90;52.40;;;;;;4913152;29;20031;-78
2022/06/20 13:31:14;;;;;;;5.78;1.90;;;24.80;60.00;;;;;;4912190;29;20028;-74
2022/06/20 13:34:08;;;;;;;2.90;1.60;;;24.70;54.80;;;;;;4912404;29;20555;-80
2022/06/20 13:36:40;;;;;;;5.30;1.35;;;24.40;57.00;;;;;;4918313;29;20306;-76
2022/06/20 13:39:43;;;;;;;4.13;1.10;;;24.40;43.80;;;;;;4921147;29;20032;-78
2022/06/20 13:42:22;;;;;;;8.73;1.50;;;24.30;48.60;;;;;;4919893;29;20027;-79
2022/06/20 13:45:12;;;;;;;3.67;1.42;;;24.20;52.90;;;;;;4924042;29;20394;-75
2022/06/20 13:47:38;;;;;;;5.18;1.60;;;24.20;50.80;;;;;;4923450;29;20642;-79
2022/06/20 13:50:19;;;;;;;4.35;1.58;;;24.10;50.30;;;;;;4922177;29;20032;-79
2022/06/20 13:52:53;;;;;;;2.77;1.37;;;23.90;51.00;;;;;;4920017;29;20059;-78